Aérodrome de la Montagne Noire

LFMG · Upper Garonne, Occitanie, 法国

罗盘
风向 的 风向 的 风向 到 风向 090° Aérodrome de la Montagne Noire 18/36
风: 8 kt, 3 beaufort

1 kt

8 kt
改变
0 1.000 2.000 3.000 4.000 5.000
CAVOK
METAR LFMK 270530Z AUTO 09008KT 070V130 CAVOK 05/02 Q1025 NOSIG

METAR Aérodrome de la Montagne Noire - LFMG

Aérodrome de la Montagne Noire是,法国中的小机场。 该机场有3条跑道: 18/36, 3/21 和 12/30. 该领域的国际民航组织标志是LFMG.

这份报告是针对2022年11月27日 06:30, 当地时间在Carcassonne Airport进行的。

机场观察

风向为090°,速度为8 kt。 风向在070°和130°之间变化。

天气为CAVOK。这意味着在5.000 ft或MSA(最低安全高度)以下(以较高者为准)以下没有云。这也意味着没有观测到积雨云或高耸的积云,可见度为10 km 或者更多或更高。此外,不会有雾,降雨或其他重要天气。

温度为5 °C,阵风为0 °C。 露点为2 °C,相对湿度为81%。 海平面上的气压为1025 hPa (QNH)。

白天

今天,太阳从08:00升起,在17:19降落。 这适用于Aérodrome de la Montagne Noire,世界夏令时可能有所不同。 当地时间与世界标准时间之间的时差为+1 小时。 当前,没有夏令时有效。

公司介绍

我们没有关于这个机场的公司信息。

体会

到Vliegles.nl去找飞行课程,跳伞和其他飞行体验。 浏览页面,了解Aérodrome de la Montagne Noire附近所有可用的活动。 你也可以使用搜索功能来寻找你所在地附近的特定飞行课程、跳伞或其他飞行体验。

跑道

Id 标题 侧风 逆风 侧风 %
18/36 004°-184° 8 kt 100 %
3/21 034°-214° 7 kt 4 kt 83 %
12/30 121°-301° 4 kt 7 kt 52 %

逆风成分最大的方向会被突出显示,并用于横风计算。 这并不一定意味着这个方向在使用。

温度 & 天气

温度 5 °C
露点 2 °C
相对湿度 81%
风寒 0 °C
Kp-index 3 (0-9)

白天

日出
07:58 (1:15)
中午
12:38
日落
17:18

小工具

你想在你的网站上有一个关于Aérodrome de la Montagne Noire的当前航空天气(METAR)的小部件吗?

显示HTML代码

我们和第三方通过cookies跟踪您在我们网站上的互联网行为。如果你继续,我们认为你同意我们的饼干政策